sensor_id;sensor_type;location;lat;lon;timestamp;P1;durP1;ratioP1;P2;durP2;ratioP2
12910;SDS011;6523;49.758;6.120;2023-12-22T00:00:39;3.93;;;1.43;;
12910;SDS011;6523;49.758;6.120;2023-12-22T00:03:04;7.07;;;2.20;;
12910;SDS011;6523;49.758;6.120;2023-12-22T00:05:30;4.77;;;1.70;;
12910;SDS011;6523;49.758;6.120;2023-12-22T00:07:55;7.27;;;1.93;;
12910;SDS011;6523;49.758;6.120;2023-12-22T00:10:21;4.97;;;1.43;;
12910;SDS011;6523;49.758;6.120;2023-12-22T00:12:46;2.60;;;1.47;;
12910;SDS011;6523;49.758;6.120;2023-12-22T00:15:12;2.87;;;1.53;;
12910;SDS011;6523;49.758;6.120;2023-12-22T00:17:38;5.30;;;1.57;;
12910;SDS011;6523;49.758;6.120;2023-12-22T00:20:03;3.83;;;1.70;;
12910;SDS011;6523;49.758;6.120;2023-12-22T00:22:29;3.73;;;1.50;;
12910;SDS011;6523;49.758;6.120;2023-12-22T00:24:55;5.87;;;1.67;;
12910;SDS011;6523;49.758;6.120;2023-12-22T00:27:21;7.67;;;2.23;;
12910;SDS011;6523;49.758;6.120;2023-12-22T00:29:46;6.60;;;1.83;;
12910;SDS011;6523;49.758;6.120;2023-12-22T00:32:12;6.70;;;1.90;;
12910;SDS011;6523;49.758;6.120;2023-12-22T00:34:38;4.97;;;1.87;;
12910;SDS011;6523;49.758;6.120;2023-12-22T00:37:03;5.40;;;2.40;;
12910;SDS011;6523;49.758;6.120;2023-12-22T00:39:29;8.30;;;1.80;;
12910;SDS011;6523;49.758;6.120;2023-12-22T00:41:56;6.77;;;2.00;;
12910;SDS011;6523;49.758;6.120;2023-12-22T00:44:21;4.23;;;1.37;;
12910;SDS011;6523;49.758;6.120;2023-12-22T00:46:47;7.53;;;1.67;;
12910;SDS011;6523;49.758;6.120;2023-12-22T00:49:12;6.90;;;1.53;;
12910;SDS011;6523;49.758;6.120;2023-12-22T00:51:38;7.00;;;1.93;;
12910;SDS011;6523;49.758;6.120;2023-12-22T00:54:04;4.20;;;1.70;;
12910;SDS011;6523;49.758;6.120;2023-12-22T00:56:29;3.87;;;1.33;;
12910;SDS011;6523;49.758;6.120;2023-12-22T00:58:55;7.03;;;2.00;;
12910;SDS011;6523;49.758;6.120;2023-12-22T01:01:21;7.53;;;1.60;;
12910;SDS011;6523;49.758;6.120;2023-12-22T01:03:46;6.00;;;1.60;;
12910;SDS011;6523;49.758;6.120;2023-12-22T01:06:12;5.27;;;1.50;;
12910;SDS011;6523;49.758;6.120;2023-12-22T01:08:39;5.50;;;1.20;;
12910;SDS011;6523;49.758;6.120;2023-12-22T01:11:04;8.63;;;2.40;;
12910;SDS011;6523;49.758;6.120;2023-12-22T01:13:30;7.20;;;2.10;;
12910;SDS011;6523;49.758;6.120;2023-12-22T01:15:56;4.40;;;1.40;;
12910;SDS011;6523;49.758;6.120;2023-12-22T01:18:21;5.30;;;1.63;;
12910;SDS011;6523;49.758;6.120;2023-12-22T01:20:47;7.40;;;1.73;;
12910;SDS011;6523;49.758;6.120;2023-12-22T01:23:14;6.00;;;1.70;;
12910;SDS011;6523;49.758;6.120;2023-12-22T01:25:39;8.00;;;1.80;;
12910;SDS011;6523;49.758;6.120;2023-12-22T01:28:05;3.97;;;2.07;;
12910;SDS011;6523;49.758;6.120;2023-12-22T01:30:30;9.93;;;2.27;;
12910;SDS011;6523;49.758;6.120;2023-12-22T01:32:56;4.67;;;1.77;;
12910;SDS011;6523;49.758;6.120;2023-12-22T01:35:22;3.40;;;1.63;;
12910;SDS011;6523;49.758;6.120;2023-12-22T01:37:47;7.50;;;1.57;;
12910;SDS011;6523;49.758;6.120;2023-12-22T01:40:14;10.87;;;1.93;;
12910;SDS011;6523;49.758;6.120;2023-12-22T01:42:39;4.63;;;1.87;;
12910;SDS011;6523;49.758;6.120;2023-12-22T01:45:05;4.77;;;2.30;;
12910;SDS011;6523;49.758;6.120;2023-12-22T01:47:31;2.60;;;1.30;;
12910;SDS011;6523;49.758;6.120;2023-12-22T01:49:57;5.77;;;1.50;;
12910;SDS011;6523;49.758;6.120;2023-12-22T01:52:24;4.77;;;1.67;;
12910;SDS011;6523;49.758;6.120;2023-12-22T01:54:50;4.80;;;1.57;;
12910;SDS011;6523;49.758;6.120;2023-12-22T01:57:16;6.87;;;2.03;;
12910;SDS011;6523;49.758;6.120;2023-12-22T01:59:44;8.10;;;3.13;;
12910;SDS011;6523;49.758;6.120;2023-12-22T02:02:10;1.17;;;0.87;;
12910;SDS011;6523;49.758;6.120;2023-12-22T02:04:35;3.53;;;1.17;;
12910;SDS011;6523;49.758;6.120;2023-12-22T02:07:01;5.50;;;2.23;;
12910;SDS011;6523;49.758;6.120;2023-12-22T02:09:28;9.20;;;4.23;;
12910;SDS011;6523;49.758;6.120;2023-12-22T02:11:53;8.20;;;3.23;;
12910;SDS011;6523;49.758;6.120;2023-12-22T02:14:19;10.63;;;5.83;;
12910;SDS011;6523;49.758;6.120;2023-12-22T02:22:06;5.10;;;1.87;;
12910;SDS011;6523;49.758;6.120;2023-12-22T02:24:32;6.80;;;2.73;;
12910;SDS011;6523;49.758;6.120;2023-12-22T02:29:49;4.33;;;1.77;;
12910;SDS011;6523;49.758;6.120;2023-12-22T02:32:23;9.80;;;2.93;;
12910;SDS011;6523;49.758;6.120;2023-12-22T02:34:55;4.80;;;1.17;;
12910;SDS011;6523;49.758;6.120;2023-12-22T02:37:22;2.50;;;1.20;;
12910;SDS011;6523;49.758;6.120;2023-12-22T02:39:50;6.53;;;2.10;;
12910;SDS011;6523;49.758;6.120;2023-12-22T02:42:17;4.00;;;1.20;;
12910;SDS011;6523;49.758;6.120;2023-12-22T02:44:45;5.63;;;1.93;;
12910;SDS011;6523;49.758;6.120;2023-12-22T02:47:11;4.47;;;1.57;;
12910;SDS011;6523;49.758;6.120;2023-12-22T02:49:36;8.57;;;1.60;;
12910;SDS011;6523;49.758;6.120;2023-12-22T02:52:02;7.60;;;1.80;;
12910;SDS011;6523;49.758;6.120;2023-12-22T02:54:27;4.17;;;1.50;;
12910;SDS011;6523;49.758;6.120;2023-12-22T02:56:55;9.00;;;2.43;;
12910;SDS011;6523;49.758;6.120;2023-12-22T02:59:20;5.90;;;2.93;;
12910;SDS011;6523;49.758;6.120;2023-12-22T03:01:46;6.10;;;2.80;;
12910;SDS011;6523;49.758;6.120;2023-12-22T03:04:11;5.17;;;1.77;;
12910;SDS011;6523;49.758;6.120;2023-12-22T03:06:37;6.93;;;1.57;;
12910;SDS011;6523;49.758;6.120;2023-12-22T03:09:02;5.43;;;2.20;;
12910;SDS011;6523;49.758;6.120;2023-12-22T03:11:28;7.03;;;1.97;;
12910;SDS011;6523;49.758;6.120;2023-12-22T03:13:54;9.17;;;2.10;;
12910;SDS011;6523;49.758;6.120;2023-12-22T03:16:19;6.33;;;1.67;;
12910;SDS011;6523;49.758;6.120;2023-12-22T03:18:45;11.90;;;2.30;;
12910;SDS011;6523;49.758;6.120;2023-12-22T03:21:17;8.00;;;2.60;;
12910;SDS011;6523;49.758;6.120;2023-12-22T03:23:46;9.20;;;2.63;;
12910;SDS011;6523;49.758;6.120;2023-12-22T03:26:11;6.53;;;2.20;;
12910;SDS011;6523;49.758;6.120;2023-12-22T03:28:37;7.03;;;1.77;;
12910;SDS011;6523;49.758;6.120;2023-12-22T03:31:03;7.47;;;2.00;;
12910;SDS011;6523;49.758;6.120;2023-12-22T03:33:29;11.67;;;2.37;;
12910;SDS011;6523;49.758;6.120;2023-12-22T03:35:54;7.07;;;2.00;;
12910;SDS011;6523;49.758;6.120;2023-12-22T03:38:20;10.97;;;2.47;;
12910;SDS011;6523;49.758;6.120;2023-12-22T03:40:45;7.13;;;2.00;;
12910;SDS011;6523;49.758;6.120;2023-12-22T03:43:11;6.30;;;2.77;;
12910;SDS011;6523;49.758;6.120;2023-12-22T03:45:36;9.00;;;2.33;;
12910;SDS011;6523;49.758;6.120;2023-12-22T03:48:02;11.00;;;1.83;;
12910;SDS011;6523;49.758;6.120;2023-12-22T03:50:28;9.47;;;2.20;;
12910;SDS011;6523;49.758;6.120;2023-12-22T03:52:53;11.07;;;2.00;;
12910;SDS011;6523;49.758;6.120;2023-12-22T03:55:19;4.70;;;1.77;;
12910;SDS011;6523;49.758;6.120;2023-12-22T03:57:44;6.97;;;1.87;;
12910;SDS011;6523;49.758;6.120;2023-12-22T04:00:10;10.53;;;2.10;;
12910;SDS011;6523;49.758;6.120;2023-12-22T04:02:36;8.33;;;2.63;;
12910;SDS011;6523;49.758;6.120;2023-12-22T04:05:02;10.07;;;2.03;;
12910;SDS011;6523;49.758;6.120;2023-12-22T04:07:27;6.47;;;1.90;;
12910;SDS011;6523;49.758;6.120;2023-12-22T04:09:53;7.17;;;1.90;;
12910;SDS011;6523;49.758;6.120;2023-12-22T04:12:19;6.90;;;1.63;;
12910;SDS011;6523;49.758;6.120;2023-12-22T04:14:44;4.10;;;1.40;;
12910;SDS011;6523;49.758;6.120;2023-12-22T04:17:10;5.30;;;1.30;;
12910;SDS011;6523;49.758;6.120;2023-12-22T04:19:36;5.73;;;1.23;;
12910;SDS011;6523;49.758;6.120;2023-12-22T04:22:01;3.47;;;1.30;;
12910;SDS011;6523;49.758;6.120;2023-12-22T04:24:27;6.47;;;1.40;;
12910;SDS011;6523;49.758;6.120;2023-12-22T04:26:53;5.07;;;1.40;;
12910;SDS011;6523;49.758;6.120;2023-12-22T04:29:19;2.60;;;1.17;;
12910;SDS011;6523;49.758;6.120;2023-12-22T04:31:44;2.67;;;1.20;;
12910;SDS011;6523;49.758;6.120;2023-12-22T04:34:11;2.50;;;0.83;;
12910;SDS011;6523;49.758;6.120;2023-12-22T04:36:39;2.20;;;0.70;;
12910;SDS011;6523;49.758;6.120;2023-12-22T04:39:04;3.10;;;1.00;;
12910;SDS011;6523;49.758;6.120;2023-12-22T04:41:30;3.17;;;1.00;;
12910;SDS011;6523;49.758;6.120;2023-12-22T04:43:55;2.23;;;0.97;;
12910;SDS011;6523;49.758;6.120;2023-12-22T04:46:21;2.33;;;1.23;;
12910;SDS011;6523;49.758;6.120;2023-12-22T04:48:46;4.70;;;1.50;;
12910;SDS011;6523;49.758;6.120;2023-12-22T04:51:12;2.93;;;1.10;;
12910;SDS011;6523;49.758;6.120;2023-12-22T04:53:37;3.43;;;1.20;;
12910;SDS011;6523;49.758;6.120;2023-12-22T04:56:03;4.27;;;1.00;;
12910;SDS011;6523;49.758;6.120;2023-12-22T04:58:29;6.40;;;1.07;;
12910;SDS011;6523;49.758;6.120;2023-12-22T05:00:54;1.93;;;1.00;;
12910;SDS011;6523;49.758;6.120;2023-12-22T05:03:20;3.77;;;1.37;;
12910;SDS011;6523;49.758;6.120;2023-12-22T05:05:45;3.77;;;1.00;;
12910;SDS011;6523;49.758;6.120;2023-12-22T05:08:11;2.87;;;1.07;;
12910;SDS011;6523;49.758;6.120;2023-12-22T05:10:37;3.63;;;1.23;;
12910;SDS011;6523;49.758;6.120;2023-12-22T05:13:02;5.60;;;1.30;;
12910;SDS011;6523;49.758;6.120;2023-12-22T05:15:28;4.27;;;1.13;;
12910;SDS011;6523;49.758;6.120;2023-12-22T05:17:54;3.43;;;1.40;;
12910;SDS011;6523;49.758;6.120;2023-12-22T05:20:19;3.43;;;1.23;;
12910;SDS011;6523;49.758;6.120;2023-12-22T05:22:45;4.03;;;1.20;;
12910;SDS011;6523;49.758;6.120;2023-12-22T05:25:12;5.57;;;0.97;;
12910;SDS011;6523;49.758;6.120;2023-12-22T05:27:38;2.77;;;1.17;;
12910;SDS011;6523;49.758;6.120;2023-12-22T05:30:04;3.80;;;0.97;;
12910;SDS011;6523;49.758;6.120;2023-12-22T05:32:30;4.17;;;1.03;;
12910;SDS011;6523;49.758;6.120;2023-12-22T05:34:56;5.63;;;0.90;;
12910;SDS011;6523;49.758;6.120;2023-12-22T05:37:21;3.20;;;1.10;;
12910;SDS011;6523;49.758;6.120;2023-12-22T05:39:47;3.07;;;1.30;;
12910;SDS011;6523;49.758;6.120;2023-12-22T05:42:13;2.00;;;1.30;;
12910;SDS011;6523;49.758;6.120;2023-12-22T05:44:38;4.57;;;1.07;;
12910;SDS011;6523;49.758;6.120;2023-12-22T05:47:04;4.17;;;1.37;;
12910;SDS011;6523;49.758;6.120;2023-12-22T05:49:30;2.20;;;0.87;;
12910;SDS011;6523;49.758;6.120;2023-12-22T05:51:56;1.67;;;1.10;;
12910;SDS011;6523;49.758;6.120;2023-12-22T05:54:21;3.00;;;1.00;;
12910;SDS011;6523;49.758;6.120;2023-12-22T05:56:48;5.17;;;1.10;;
12910;SDS011;6523;49.758;6.120;2023-12-22T05:59:16;4.70;;;1.23;;
12910;SDS011;6523;49.758;6.120;2023-12-22T06:01:41;5.67;;;1.20;;
12910;SDS011;6523;49.758;6.120;2023-12-22T06:04:07;5.83;;;1.13;;
12910;SDS011;6523;49.758;6.120;2023-12-22T06:06:32;6.33;;;1.70;;
12910;SDS011;6523;49.758;6.120;2023-12-22T06:08:58;3.10;;;1.23;;
12910;SDS011;6523;49.758;6.120;2023-12-22T06:11:24;4.97;;;1.40;;
12910;SDS011;6523;49.758;6.120;2023-12-22T06:13:49;3.97;;;1.40;;
12910;SDS011;6523;49.758;6.120;2023-12-22T06:16:15;3.47;;;1.90;;
12910;SDS011;6523;49.758;6.120;2023-12-22T06:18:41;6.73;;;1.83;;
12910;SDS011;6523;49.758;6.120;2023-12-22T06:21:08;5.57;;;2.10;;
12910;SDS011;6523;49.758;6.120;2023-12-22T06:23:34;8.37;;;2.47;;
12910;SDS011;6523;49.758;6.120;2023-12-22T06:25:59;9.60;;;2.20;;
12910;SDS011;6523;49.758;6.120;2023-12-22T06:28:27;12.10;;;3.77;;
12910;SDS011;6523;49.758;6.120;2023-12-22T06:30:53;11.37;;;2.97;;
12910;SDS011;6523;49.758;6.120;2023-12-22T06:33:19;10.30;;;2.70;;
12910;SDS011;6523;49.758;6.120;2023-12-22T06:35:45;14.83;;;3.90;;
12910;SDS011;6523;49.758;6.120;2023-12-22T06:38:10;7.50;;;2.60;;
12910;SDS011;6523;49.758;6.120;2023-12-22T06:40:36;16.97;;;3.20;;
12910;SDS011;6523;49.758;6.120;2023-12-22T06:43:03;17.57;;;3.10;;
12910;SDS011;6523;49.758;6.120;2023-12-22T06:45:29;11.60;;;3.20;;
12910;SDS011;6523;49.758;6.120;2023-12-22T06:47:55;12.57;;;3.53;;
12910;SDS011;6523;49.758;6.120;2023-12-22T06:50:21;12.07;;;4.17;;
12910;SDS011;6523;49.758;6.120;2023-12-22T06:52:46;11.03;;;3.47;;
12910;SDS011;6523;49.758;6.120;2023-12-22T06:55:12;21.00;;;4.03;;
12910;SDS011;6523;49.758;6.120;2023-12-22T06:57:37;13.13;;;3.93;;
12910;SDS011;6523;49.758;6.120;2023-12-22T07:00:03;14.57;;;3.67;;
12910;SDS011;6523;49.758;6.120;2023-12-22T07:02:29;15.23;;;3.40;;
12910;SDS011;6523;49.758;6.120;2023-12-22T07:07:48;10.50;;;3.70;;
12910;SDS011;6523;49.758;6.120;2023-12-22T07:10:15;13.93;;;3.70;;
12910;SDS011;6523;49.758;6.120;2023-12-22T07:12:41;13.27;;;3.00;;
12910;SDS011;6523;49.758;6.120;2023-12-22T07:15:07;18.93;;;4.80;;
12910;SDS011;6523;49.758;6.120;2023-12-22T07:17:33;13.10;;;3.70;;
12910;SDS011;6523;49.758;6.120;2023-12-22T07:19:59;16.43;;;3.23;;
12910;SDS011;6523;49.758;6.120;2023-12-22T07:22:27;18.27;;;3.57;;
12910;SDS011;6523;49.758;6.120;2023-12-22T07:24:53;15.23;;;3.27;;
12910;SDS011;6523;49.758;6.120;2023-12-22T07:27:20;11.30;;;3.37;;
12910;SDS011;6523;49.758;6.120;2023-12-22T07:29:46;19.87;;;5.00;;
12910;SDS011;6523;49.758;6.120;2023-12-22T07:32:11;15.57;;;3.83;;
12910;SDS011;6523;49.758;6.120;2023-12-22T07:34:37;20.63;;;3.63;;
12910;SDS011;6523;49.758;6.120;2023-12-22T07:37:03;15.67;;;4.07;;
12910;SDS011;6523;49.758;6.120;2023-12-22T07:39:29;13.70;;;3.47;;
12910;SDS011;6523;49.758;6.120;2023-12-22T07:41:55;14.77;;;3.40;;
12910;SDS011;6523;49.758;6.120;2023-12-22T07:44:21;17.67;;;3.60;;
12910;SDS011;6523;49.758;6.120;2023-12-22T07:46:55;12.33;;;3.30;;
12910;SDS011;6523;49.758;6.120;2023-12-22T07:49:22;18.80;;;4.03;;
12910;SDS011;6523;49.758;6.120;2023-12-22T07:51:48;12.07;;;3.57;;
12910;SDS011;6523;49.758;6.120;2023-12-22T07:54:16;11.23;;;3.23;;
12910;SDS011;6523;49.758;6.120;2023-12-22T07:56:42;17.67;;;3.70;;
12910;SDS011;6523;49.758;6.120;2023-12-22T07:59:08;12.80;;;3.73;;
12910;SDS011;6523;49.758;6.120;2023-12-22T08:01:33;19.17;;;4.23;;
12910;SDS011;6523;49.758;6.120;2023-12-22T08:03:59;12.50;;;3.27;;
12910;SDS011;6523;49.758;6.120;2023-12-22T08:06:24;16.30;;;3.53;;
12910;SDS011;6523;49.758;6.120;2023-12-22T08:08:50;14.50;;;3.23;;
12910;SDS011;6523;49.758;6.120;2023-12-22T08:11:15;13.40;;;3.00;;
12910;SDS011;6523;49.758;6.120;2023-12-22T08:13:41;13.87;;;3.70;;
12910;SDS011;6523;49.758;6.120;2023-12-22T08:16:07;14.70;;;4.30;;
12910;SDS011;6523;49.758;6.120;2023-12-22T08:18:32;16.07;;;3.83;;
12910;SDS011;6523;49.758;6.120;2023-12-22T08:20:58;14.20;;;3.17;;
12910;SDS011;6523;49.758;6.120;2023-12-22T08:23:23;15.33;;;4.10;;
12910;SDS011;6523;49.758;6.120;2023-12-22T08:25:49;14.03;;;3.63;;
12910;SDS011;6523;49.758;6.120;2023-12-22T08:28:15;17.30;;;3.80;;
12910;SDS011;6523;49.758;6.120;2023-12-22T08:30:40;10.67;;;3.00;;
12910;SDS011;6523;49.758;6.120;2023-12-22T08:33:06;15.33;;;3.17;;
12910;SDS011;6523;49.758;6.120;2023-12-22T08:35:31;14.13;;;3.10;;
12910;SDS011;6523;49.758;6.120;2023-12-22T08:37:57;13.57;;;3.60;;
12910;SDS011;6523;49.758;6.120;2023-12-22T08:40:23;15.23;;;3.60;;
12910;SDS011;6523;49.758;6.120;2023-12-22T08:42:51;13.30;;;3.07;;
12910;SDS011;6523;49.758;6.120;2023-12-22T08:45:19;13.47;;;3.50;;
12910;SDS011;6523;49.758;6.120;2023-12-22T08:47:46;14.07;;;2.93;;
12910;SDS011;6523;49.758;6.120;2023-12-22T08:50:11;12.03;;;3.00;;
12910;SDS011;6523;49.758;6.120;2023-12-22T08:52:38;12.17;;;2.70;;
12910;SDS011;6523;49.758;6.120;2023-12-22T08:55:04;7.87;;;3.03;;
12910;SDS011;6523;49.758;6.120;2023-12-22T08:57:30;11.07;;;2.50;;
12910;SDS011;6523;49.758;6.120;2023-12-22T08:59:56;9.47;;;2.13;;
12910;SDS011;6523;49.758;6.120;2023-12-22T09:02:22;9.33;;;2.03;;
12910;SDS011;6523;49.758;6.120;2023-12-22T09:04:48;7.07;;;2.80;;
12910;SDS011;6523;49.758;6.120;2023-12-22T09:07:13;13.53;;;3.00;;
12910;SDS011;6523;49.758;6.120;2023-12-22T09:09:45;11.00;;;2.57;;
12910;SDS011;6523;49.758;6.120;2023-12-22T09:12:11;6.30;;;2.20;;
12910;SDS011;6523;49.758;6.120;2023-12-22T09:14:37;10.27;;;2.30;;
12910;SDS011;6523;49.758;6.120;2023-12-22T09:17:02;7.23;;;2.10;;
12910;SDS011;6523;49.758;6.120;2023-12-22T09:21:57;7.47;;;2.03;;
12910;SDS011;6523;49.758;6.120;2023-12-22T09:24:23;9.87;;;2.00;;
12910;SDS011;6523;49.758;6.120;2023-12-22T09:26:48;7.80;;;2.43;;
12910;SDS011;6523;49.758;6.120;2023-12-22T09:29:15;7.30;;;1.90;;
12910;SDS011;6523;49.758;6.120;2023-12-22T09:31:42;6.23;;;2.37;;
12910;SDS011;6523;49.758;6.120;2023-12-22T09:34:07;7.23;;;1.97;;
12910;SDS011;6523;49.758;6.120;2023-12-22T09:36:33;6.20;;;1.93;;
12910;SDS011;6523;49.758;6.120;2023-12-22T09:38:58;4.23;;;1.50;;
12910;SDS011;6523;49.758;6.120;2023-12-22T09:41:24;6.63;;;2.40;;
12910;SDS011;6523;49.758;6.120;2023-12-22T09:43:50;5.13;;;1.60;;
12910;SDS011;6523;49.758;6.120;2023-12-22T09:46:18;4.60;;;1.17;;
12910;SDS011;6523;49.758;6.120;2023-12-22T09:48:45;4.70;;;1.10;;
12910;SDS011;6523;49.758;6.120;2023-12-22T09:51:11;1.53;;;0.90;;
12910;SDS011;6523;49.758;6.120;2023-12-22T09:53:39;4.47;;;1.27;;
12910;SDS011;6523;49.758;6.120;2023-12-22T09:56:05;3.10;;;1.40;;
12910;SDS011;6523;49.758;6.120;2023-12-22T09:58:33;4.53;;;1.20;;
12910;SDS011;6523;49.758;6.120;2023-12-22T10:01:00;4.23;;;1.27;;
12910;SDS011;6523;49.758;6.120;2023-12-22T10:03:30;1.80;;;0.90;;
12910;SDS011;6523;49.758;6.120;2023-12-22T10:05:59;2.40;;;1.10;;
12910;SDS011;6523;49.758;6.120;2023-12-22T10:08:26;4.23;;;1.03;;
12910;SDS011;6523;49.758;6.120;2023-12-22T10:10:52;2.53;;;0.87;;
12910;SDS011;6523;49.758;6.120;2023-12-22T10:13:19;3.43;;;0.87;;
12910;SDS011;6523;49.758;6.120;2023-12-22T10:15:45;2.57;;;1.00;;
12910;SDS011;6523;49.758;6.120;2023-12-22T10:18:12;3.27;;;0.77;;
12910;SDS011;6523;49.758;6.120;2023-12-22T10:20:38;3.73;;;1.20;;
12910;SDS011;6523;49.758;6.120;2023-12-22T10:23:03;3.57;;;1.00;;
12910;SDS011;6523;49.758;6.120;2023-12-22T10:25:29;4.07;;;1.50;;
12910;SDS011;6523;49.758;6.120;2023-12-22T10:27:55;1.50;;;0.77;;
12910;SDS011;6523;49.758;6.120;2023-12-22T10:30:21;0.70;;;0.70;;
12910;SDS011;6523;49.758;6.120;2023-12-22T10:32:50;0.87;;;0.50;;
12910;SDS011;6523;49.758;6.120;2023-12-22T10:35:17;0.77;;;0.50;;
12910;SDS011;6523;49.758;6.120;2023-12-22T10:37:43;1.37;;;0.60;;
12910;SDS011;6523;49.758;6.120;2023-12-22T10:40:10;1.77;;;0.80;;
12910;SDS011;6523;49.758;6.120;2023-12-22T10:42:36;1.47;;;0.57;;
12910;SDS011;6523;49.758;6.120;2023-12-22T10:45:02;1.00;;;0.60;;
12910;SDS011;6523;49.758;6.120;2023-12-22T10:47:28;1.47;;;0.63;;
12910;SDS011;6523;49.758;6.120;2023-12-22T10:49:54;0.70;;;0.57;;
12910;SDS011;6523;49.758;6.120;2023-12-22T10:52:20;1.40;;;0.60;;
12910;SDS011;6523;49.758;6.120;2023-12-22T10:54:45;1.30;;;0.50;;
12910;SDS011;6523;49.758;6.120;2023-12-22T10:57:13;0.93;;;0.60;;
12910;SDS011;6523;49.758;6.120;2023-12-22T10:59:44;0.90;;;0.50;;
12910;SDS011;6523;49.758;6.120;2023-12-22T11:02:20;1.63;;;0.70;;
12910;SDS011;6523;49.758;6.120;2023-12-22T11:04:47;1.37;;;0.37;;
12910;SDS011;6523;49.758;6.120;2023-12-22T11:07:30;2.93;;;0.70;;
12910;SDS011;6523;49.758;6.120;2023-12-22T11:10:04;1.63;;;0.70;;
12910;SDS011;6523;49.758;6.120;2023-12-22T11:12:40;0.50;;;0.40;;
12910;SDS011;6523;49.758;6.120;2023-12-22T11:15:08;1.07;;;0.67;;
12910;SDS011;6523;49.758;6.120;2023-12-22T11:17:39;0.87;;;0.50;;
12910;SDS011;6523;49.758;6.120;2023-12-22T11:20:07;0.70;;;0.50;;
12910;SDS011;6523;49.758;6.120;2023-12-22T11:22:34;0.87;;;0.60;;
12910;SDS011;6523;49.758;6.120;2023-12-22T11:25:02;2.40;;;1.13;;
12910;SDS011;6523;49.758;6.120;2023-12-22T11:27:28;1.00;;;0.90;;
12910;SDS011;6523;49.758;6.120;2023-12-22T11:29:55;2.13;;;1.07;;
12910;SDS011;6523;49.758;6.120;2023-12-22T11:32:21;1.60;;;0.87;;
12910;SDS011;6523;49.758;6.120;2023-12-22T11:34:47;2.10;;;1.00;;
12910;SDS011;6523;49.758;6.120;2023-12-22T11:37:14;1.93;;;1.23;;
12910;SDS011;6523;49.758;6.120;2023-12-22T11:39:40;1.20;;;0.57;;
12910;SDS011;6523;49.758;6.120;2023-12-22T11:42:12;0.70;;;0.70;;
12910;SDS011;6523;49.758;6.120;2023-12-22T11:44:43;1.50;;;0.80;;
12910;SDS011;6523;49.758;6.120;2023-12-22T11:47:09;0.73;;;0.70;;
12910;SDS011;6523;49.758;6.120;2023-12-22T11:49:37;2.07;;;1.13;;
12910;SDS011;6523;49.758;6.120;2023-12-22T11:52:12;1.60;;;0.70;;
12910;SDS011;6523;49.758;6.120;2023-12-22T12:00:03;1.40;;;0.73;;
12910;SDS011;6523;49.758;6.120;2023-12-22T12:02:56;1.90;;;0.80;;
12910;SDS011;6523;49.758;6.120;2023-12-22T12:05:22;1.70;;;1.13;;
12910;SDS011;6523;49.758;6.120;2023-12-22T12:07:48;1.57;;;1.00;;
12910;SDS011;6523;49.758;6.120;2023-12-22T12:13:07;2.00;;;0.80;;
12910;SDS011;6523;49.758;6.120;2023-12-22T12:15:37;0.90;;;0.80;;
12910;SDS011;6523;49.758;6.120;2023-12-22T12:18:04;1.60;;;0.80;;
12910;SDS011;6523;49.758;6.120;2023-12-22T12:20:32;2.27;;;0.70;;
12910;SDS011;6523;49.758;6.120;2023-12-22T12:23:00;3.13;;;1.47;;
12910;SDS011;6523;49.758;6.120;2023-12-22T12:25:29;1.93;;;0.97;;
12910;SDS011;6523;49.758;6.120;2023-12-22T12:28:06;1.13;;;0.77;;
12910;SDS011;6523;49.758;6.120;2023-12-22T12:30:34;1.97;;;0.63;;
12910;SDS011;6523;49.758;6.120;2023-12-22T12:33:10;1.70;;;0.93;;
12910;SDS011;6523;49.758;6.120;2023-12-22T12:35:39;1.17;;;0.70;;
12910;SDS011;6523;49.758;6.120;2023-12-22T12:38:05;1.17;;;0.57;;
12910;SDS011;6523;49.758;6.120;2023-12-22T12:40:31;2.43;;;1.13;;
12910;SDS011;6523;49.758;6.120;2023-12-22T12:43:00;5.60;;;2.63;;
12910;SDS011;6523;49.758;6.120;2023-12-22T12:45:26;0.97;;;0.60;;
12910;SDS011;6523;49.758;6.120;2023-12-22T12:50:21;0.77;;;0.60;;
12910;SDS011;6523;49.758;6.120;2023-12-22T12:52:48;2.97;;;1.50;;
12910;SDS011;6523;49.758;6.120;2023-12-22T12:55:16;0.93;;;0.80;;
12910;SDS011;6523;49.758;6.120;2023-12-22T12:57:48;0.67;;;0.60;;
12910;SDS011;6523;49.758;6.120;2023-12-22T13:00:15;0.87;;;0.50;;
12910;SDS011;6523;49.758;6.120;2023-12-22T13:02:48;2.90;;;1.00;;
12910;SDS011;6523;49.758;6.120;2023-12-22T13:05:20;2.37;;;1.30;;
12910;SDS011;6523;49.758;6.120;2023-12-22T13:07:47;1.90;;;0.77;;
12910;SDS011;6523;49.758;6.120;2023-12-22T13:10:19;6.13;;;1.87;;
12910;SDS011;6523;49.758;6.120;2023-12-22T13:12:50;1.87;;;0.60;;
12910;SDS011;6523;49.758;6.120;2023-12-22T13:15:18;2.77;;;1.10;;
12910;SDS011;6523;49.758;6.120;2023-12-22T13:17:45;0.97;;;0.70;;
12910;SDS011;6523;49.758;6.120;2023-12-22T13:20:11;4.93;;;1.60;;
12910;SDS011;6523;49.758;6.120;2023-12-22T13:22:37;3.93;;;1.50;;
12910;SDS011;6523;49.758;6.120;2023-12-22T13:25:03;2.07;;;0.80;;
12910;SDS011;6523;49.758;6.120;2023-12-22T13:27:29;2.77;;;0.87;;
12910;SDS011;6523;49.758;6.120;2023-12-22T13:29:56;2.03;;;0.47;;
12910;SDS011;6523;49.758;6.120;2023-12-22T13:32:21;3.33;;;2.07;;
12910;SDS011;6523;49.758;6.120;2023-12-22T13:34:52;2.03;;;1.17;;
12910;SDS011;6523;49.758;6.120;2023-12-22T13:37:19;2.00;;;0.80;;
12910;SDS011;6523;49.758;6.120;2023-12-22T13:39:48;0.60;;;0.60;;
12910;SDS011;6523;49.758;6.120;2023-12-22T13:42:19;0.40;;;0.40;;
12910;SDS011;6523;49.758;6.120;2023-12-22T13:44:47;1.10;;;0.70;;
12910;SDS011;6523;49.758;6.120;2023-12-22T13:47:17;1.27;;;0.50;;
12910;SDS011;6523;49.758;6.120;2023-12-22T13:49:47;0.63;;;0.57;;
12910;SDS011;6523;49.758;6.120;2023-12-22T13:52:26;0.67;;;0.40;;
12910;SDS011;6523;49.758;6.120;2023-12-22T13:55:00;0.30;;;0.30;;
12910;SDS011;6523;49.758;6.120;2023-12-22T13:57:27;0.63;;;0.50;;
12910;SDS011;6523;49.758;6.120;2023-12-22T13:59:53;1.47;;;0.67;;
12910;SDS011;6523;49.758;6.120;2023-12-22T14:02:20;0.60;;;0.50;;
12910;SDS011;6523;49.758;6.120;2023-12-22T14:04:47;1.43;;;0.50;;
12910;SDS011;6523;49.758;6.120;2023-12-22T14:07:14;1.47;;;0.67;;
12910;SDS011;6523;49.758;6.120;2023-12-22T14:09:40;1.00;;;0.90;;
12910;SDS011;6523;49.758;6.120;2023-12-22T14:12:06;0.93;;;0.53;;
12910;SDS011;6523;49.758;6.120;2023-12-22T14:14:31;0.83;;;0.43;;
12910;SDS011;6523;49.758;6.120;2023-12-22T14:16:57;0.50;;;0.40;;
12910;SDS011;6523;49.758;6.120;2023-12-22T14:19:22;1.57;;;0.50;;
12910;SDS011;6523;49.758;6.120;2023-12-22T14:21:48;0.97;;;0.60;;
12910;SDS011;6523;49.758;6.120;2023-12-22T14:24:14;0.70;;;0.50;;
12910;SDS011;6523;49.758;6.120;2023-12-22T14:26:52;0.47;;;0.43;;
12910;SDS011;6523;49.758;6.120;2023-12-22T14:29:21;0.43;;;0.37;;
12910;SDS011;6523;49.758;6.120;2023-12-22T14:31:48;1.40;;;0.70;;
12910;SDS011;6523;49.758;6.120;2023-12-22T14:34:14;0.83;;;0.50;;
12910;SDS011;6523;49.758;6.120;2023-12-22T14:36:40;1.43;;;0.70;;
12910;SDS011;6523;49.758;6.120;2023-12-22T14:39:05;0.50;;;0.50;;
12910;SDS011;6523;49.758;6.120;2023-12-22T14:41:31;2.53;;;0.60;;
12910;SDS011;6523;49.758;6.120;2023-12-22T14:43:57;1.13;;;0.60;;
12910;SDS011;6523;49.758;6.120;2023-12-22T14:46:22;0.80;;;0.50;;
12910;SDS011;6523;49.758;6.120;2023-12-22T14:48:48;0.97;;;0.77;;
12910;SDS011;6523;49.758;6.120;2023-12-22T14:51:13;0.87;;;0.87;;
12910;SDS011;6523;49.758;6.120;2023-12-22T14:53:39;0.90;;;0.70;;
12910;SDS011;6523;49.758;6.120;2023-12-22T14:56:04;1.90;;;0.70;;
12910;SDS011;6523;49.758;6.120;2023-12-22T14:58:31;1.60;;;0.70;;
12910;SDS011;6523;49.758;6.120;2023-12-22T15:00:57;0.83;;;0.83;;
12910;SDS011;6523;49.758;6.120;2023-12-22T15:03:22;0.97;;;0.60;;
12910;SDS011;6523;49.758;6.120;2023-12-22T15:05:48;1.10;;;0.47;;
12910;SDS011;6523;49.758;6.120;2023-12-22T15:08:14;1.80;;;0.67;;
12910;SDS011;6523;49.758;6.120;2023-12-22T15:10:39;0.50;;;0.50;;
12910;SDS011;6523;49.758;6.120;2023-12-22T15:13:05;1.87;;;0.50;;
12910;SDS011;6523;49.758;6.120;2023-12-22T15:15:30;0.60;;;0.40;;
12910;SDS011;6523;49.758;6.120;2023-12-22T15:17:56;0.83;;;0.57;;